Time;durP1;ratioP1;P1;durP2;ratioP2;P2;SDS_P1;SDS_P2;PMS_P1;PMS_P2;Temp;Humidity;BMP_temperature;BMP_pressure;BME280_temperature;BME280_humidity;BME280_pressure;Samples;Min_cycle;Max_cycle;Signal;HPM_P1;HPM_P2
2021/04/13 00:00:44;;;;;;;3.40;3.10;;;;;;;-142.06;100.00;64312.41;4955254;23;20221;-83
2021/04/13 00:04:03;;;;;;;3.70;3.40;;;;;;;-142.06;100.00;64312.41;4969148;23;20207;-82
2021/04/13 00:08:02;;;;;;;3.53;3.23;;;;;;;-142.06;100.00;64312.41;4982010;23;20232;-81
2021/04/13 00:11:17;;;;;;;3.40;3.10;;;;;;;-142.06;100.00;64312.41;5004381;23;20518;-82
2021/04/13 00:14:42;;;;;;;3.80;3.50;;;;;;;-142.06;100.00;64312.41;5011037;23;20227;-82
2021/04/13 00:18:13;;;;;;;3.80;3.50;;;;;;;-142.06;100.00;64312.41;4981037;23;20216;-82
2021/04/13 00:21:51;;;;;;;3.97;3.67;;;;;;;-142.06;100.00;64312.41;4997032;23;20522;-81
2021/04/13 00:25:41;;;;;;;3.90;3.60;;;;;;;-142.06;100.00;64312.41;4957435;23;20256;-82
2021/04/13 00:29:08;;;;;;;3.57;3.27;;;;;;;-142.06;100.00;64312.41;4976473;29;20236;-81
2021/04/13 00:32:21;;;;;;;4.20;3.60;;;;;;;-142.06;100.00;64312.41;4999734;23;20219;-82
2021/04/13 00:36:48;;;;;;;3.53;3.23;;;;;;;-142.06;100.00;64312.41;5094589;23;20239;-82
2021/04/13 00:41:18;;;;;;;4.57;4.17;;;;;;;-142.06;100.00;64312.41;5012365;23;21278;-82
2021/04/13 00:44:35;;;;;;;4.40;4.00;;;;;;;-142.06;100.00;64312.41;5002184;23;20323;-82
2021/04/13 00:48:13;;;;;;;3.97;3.67;;;;;;;-142.06;100.00;64312.41;4979575;23;20232;-81
2021/04/13 00:51:58;;;;;;;4.43;4.03;;;;;;;-142.06;100.00;64312.41;5014024;28;20232;-82
2021/04/13 00:59:55;;;;;;;3.93;3.63;;;;;;;-142.06;100.00;64312.41;5001275;23;20204;-82
2021/04/13 01:03:19;;;;;;;3.93;3.63;;;;;;;-142.06;100.00;64312.41;4976240;29;20263;-82
2021/04/13 01:06:44;;;;;;;4.33;3.93;;;;;;;-142.06;100.00;64312.41;4965585;29;20224;-81
2021/04/13 01:10:29;;;;;;;4.10;3.80;;;;;;;-142.06;100.00;64312.41;4981048;23;20235;-82
2021/04/13 01:14:24;;;;;;;4.00;3.70;;;;;;;-142.06;100.00;64312.41;4973438;29;20193;-82
2021/04/13 01:17:57;;;;;;;4.83;4.43;;;;;;;-142.06;100.00;64312.41;4936612;29;20209;-81
2021/04/13 01:21:09;;;;;;;4.77;4.37;;;;;;;-142.06;100.00;64312.41;4951317;23;20315;-82
2021/04/13 01:24:31;;;;;;;4.23;3.83;;;;;;;-142.06;100.00;64312.41;4953381;23;20297;-82
2021/04/13 01:28:06;;;;;;;4.90;4.50;;;;;;;-142.06;100.00;64312.41;5039904;23;20301;-82
2021/04/13 01:31:49;;;;;;;4.57;4.17;;;;;;;-142.06;100.00;64312.41;4993217;23;20323;-82
2021/04/13 01:35:35;;;;;;;4.17;3.77;;;;;;;-142.06;100.00;64312.41;4981101;23;20252;-82
2021/04/13 01:39:12;;;;;;;3.83;3.53;;;;;;;-142.06;100.00;64312.41;4960957;29;20252;-81
2021/04/13 01:42:47;;;;;;;4.00;3.70;;;;;;;-142.06;100.00;64312.41;4977888;28;20237;-81
2021/04/13 01:46:37;;;;;;;4.20;3.70;;;;;;;-142.06;100.00;64312.41;4969652;23;20232;-82
2021/04/13 01:50:22;;;;;;;4.57;4.17;;;;;;;-142.06;100.00;64312.41;4973104;29;20193;-82
2021/04/13 01:53:44;;;;;;;4.30;3.90;;;;;;;-142.06;100.00;64312.41;4975104;29;20189;-83
2021/04/13 01:57:58;;;;;;;4.33;3.93;;;;;;;-142.06;100.00;64312.41;4965156;29;20189;-82
2021/04/13 02:01:36;;;;;;;4.00;3.70;;;;;;;-142.06;100.00;64312.41;4932023;23;20239;-81
2021/04/13 02:05:24;;;;;;;4.43;4.03;;;;;;;-142.06;100.00;64312.41;5017177;28;20288;-82
2021/04/13 02:12:45;;;;;;;4.43;4.03;;;;;;;-142.06;100.00;64312.41;4983443;23;20185;-81
2021/04/13 02:16:10;;;;;;;4.57;4.03;;;;;;;-142.06;100.00;64312.41;4966642;23;20227;-81
2021/04/13 02:19:54;;;;;;;4.80;4.40;;;;;;;-142.06;100.00;64312.41;4980557;23;20234;-82
2021/04/13 02:23:13;;;;;;;4.03;3.63;;;;;;;-142.06;100.00;64312.41;4997357;23;20216;-81
2021/04/13 02:27:04;;;;;;;4.40;4.00;;;;;;;-142.06;100.00;64312.41;4995572;28;20224;-82
2021/04/13 02:30:58;;;;;;;4.27;3.87;;;;;;;-142.06;100.00;64312.41;4968719;28;20228;-81
2021/04/13 02:34:12;;;;;;;3.90;3.50;;;;;;;-142.06;100.00;64312.41;4971586;28;20529;-82
2021/04/13 02:37:33;;;;;;;4.03;3.73;;;;;;;-142.06;100.00;64312.41;4995665;28;20180;-81
2021/04/13 02:41:09;;;;;;;4.07;3.67;;;;;;;-142.06;100.00;64312.41;5004404;23;20255;-81
2021/04/13 02:44:45;;;;;;;4.30;3.67;;;;;;;-142.06;100.00;64312.41;4952083;29;20305;-82
2021/04/13 02:48:30;;;;;;;4.50;4.00;;;;;;;-142.06;100.00;64312.41;4952450;29;20297;-81
2021/04/13 02:51:57;;;;;;;4.10;3.73;;;;;;;-142.06;100.00;64312.41;5006715;23;20242;-82
2021/04/13 02:55:23;;;;;;;3.80;3.50;;;;;;;-142.06;100.00;64312.41;4981747;28;20506;-81
2021/04/13 02:59:34;;;;;;;4.17;3.77;;;;;;;-142.06;100.00;64312.41;4982916;23;20255;-82
2021/04/13 03:02:48;;;;;;;4.23;3.83;;;;;;;-142.06;100.00;64312.41;4992505;28;20184;-81
2021/04/13 03:06:06;;;;;;;4.13;3.83;;;;;;;-142.06;100.00;64312.41;4996109;23;20246;-81
2021/04/13 03:09:12;;;;;;;4.50;4.10;;;;;;;-142.06;100.00;64312.41;4963332;23;20225;-82
2021/04/13 03:12:22;;;;;;;4.40;4.00;;;;;;;-142.06;100.00;64312.41;4973683;29;20284;-81
2021/04/13 03:15:37;;;;;;;3.93;3.63;;;;;;;-142.06;100.00;64312.41;4973045;29;20224;-81
2021/04/13 03:19:12;;;;;;;4.00;3.60;;;;;;;-142.06;100.00;64312.41;4973181;28;20230;-81
2021/04/13 03:22:41;;;;;;;4.47;4.07;;;;;;;-142.06;100.00;64312.41;4996925;23;20227;-81
2021/04/13 03:26:08;;;;;;;4.07;3.67;;;;;;;-142.06;100.00;64312.41;5005549;23;20284;-82
2021/04/13 03:29:51;;;;;;;4.20;3.80;;;;;;;-142.06;100.00;64312.41;4977891;23;20229;-81
2021/04/13 03:33:24;;;;;;;4.23;3.83;;;;;;;-142.06;100.00;64312.41;4973792;28;20236;-81
2021/04/13 03:36:48;;;;;;;4.20;3.80;;;;;;;-142.06;100.00;64312.41;4975058;29;20201;-82
2021/04/13 03:39:51;;;;;;;4.37;3.97;;;;;;;-142.06;100.00;64312.41;4952777;29;20208;-81
2021/04/13 03:43:09;;;;;;;4.07;3.77;;;;;;;-142.06;100.00;64312.41;4982406;23;20218;-82
2021/04/13 03:47:00;;;;;;;4.57;3.63;;;;;;;-142.06;100.00;64312.41;4980195;23;20226;-81
2021/04/13 03:50:51;;;;;;;4.10;3.63;;;;;;;-142.06;100.00;64312.41;5001866;23;20231;-82
2021/04/13 03:53:55;;;;;;;3.87;3.47;;;;;;;-142.06;100.00;64312.41;5010550;28;20211;-81
2021/04/13 03:57:09;;;;;;;4.47;3.87;;;;;;;-142.06;100.00;64312.41;5011244;28;20243;-81
2021/04/13 04:00:25;;;;;;;4.00;3.60;;;;;;;-142.06;100.00;64312.41;4990946;28;20223;-81
2021/04/13 04:03:42;;;;;;;4.50;3.40;;;;;;;-142.06;100.00;64312.41;4997145;23;20232;-82
2021/04/13 04:07:15;;;;;;;3.93;3.10;;;;;;;-142.06;100.00;64312.41;4978747;28;20190;-82
2021/04/13 04:11:25;;;;;;;3.30;3.00;;;;;;;-142.06;100.00;64312.41;5003790;23;20232;-82
2021/04/13 04:15:02;;;;;;;3.77;3.30;;;;;;;-142.06;100.00;64312.41;4974929;28;20283;-81
2021/04/13 04:19:02;;;;;;;3.60;3.30;;;;;;;-142.06;100.00;64312.41;5019398;23;20290;-81
2021/04/13 04:22:24;;;;;;;3.70;3.30;;;;;;;-142.06;100.00;64312.41;4983458;23;20232;-81
2021/04/13 04:25:52;;;;;;;3.50;3.20;;;;;;;-142.06;100.00;64312.41;4980360;28;20215;-81
2021/04/13 04:29:20;;;;;;;3.60;3.27;;;;;;;-142.06;100.00;64312.41;4990375;28;20223;-81
2021/04/13 04:32:36;;;;;;;5.00;3.10;;;;;;;-142.06;100.00;64312.41;4990450;28;20287;-81
2021/04/13 04:36:05;;;;;;;5.17;3.60;;;;;;;-142.06;100.00;64312.41;4971847;23;20240;-80
2021/04/13 04:39:17;;;;;;;4.40;3.30;;;;;;;-142.06;100.00;64312.41;4964642;23;20567;-81
2021/04/13 04:42:58;;;;;;;4.07;3.30;;;;;;;-142.06;100.00;64312.41;4953198;29;20213;-81
2021/04/13 04:46:09;;;;;;;3.63;3.33;;;;;;;-142.06;100.00;64312.41;4997737;23;20260;-81
2021/04/13 04:49:52;;;;;;;4.40;3.17;;;;;;;-142.06;100.00;64312.41;4984598;28;20191;-82
2021/04/13 04:53:35;;;;;;;4.30;3.20;;;;;;;-142.06;100.00;64312.41;4994749;28;20236;-80
2021/04/13 04:57:22;;;;;;;3.60;3.20;;;;;;;-142.06;100.00;64312.41;5010097;23;20220;-80
2021/04/13 05:01:01;;;;;;;7.33;3.57;;;;;;;-142.06;100.00;64312.41;5015803;28;20235;-80
2021/04/13 05:04:38;;;;;;;3.80;3.50;;;;;;;-142.06;100.00;64312.41;5014892;28;20239;-81
2021/04/13 05:07:42;;;;;;;5.53;3.77;;;;;;;-142.06;100.00;64312.41;5012463;23;20295;-81
2021/04/13 05:11:56;;;;;;;4.00;3.40;;;;;;;-142.06;100.00;64312.41;5034835;23;20239;-82
2021/04/13 05:15:37;;;;;;;6.30;3.50;;;;;;;-142.06;100.00;64312.41;5014992;28;20220;-81
2021/04/13 05:19:07;;;;;;;4.63;3.77;;;;;;;-142.06;100.00;64312.41;5015754;23;20200;-82
2021/04/13 05:22:14;;;;;;;4.20;3.40;;;;;;;-142.06;100.00;64312.41;4970026;28;20283;-80
2021/04/13 05:25:34;;;;;;;6.67;3.93;;;;;;;-142.06;100.00;64312.41;4979027;28;20248;-81
2021/04/13 05:28:59;;;;;;;4.70;3.80;;;;;;;-142.06;100.00;64312.41;4982097;28;20228;-81
2021/04/13 05:31:48;;;;;;;5.03;3.80;;;;;;;-142.06;100.00;64312.41;4973566;28;20229;-81
2021/04/13 05:35:22;;;;;;;4.20;3.63;;;;;;;-142.06;100.00;64312.41;4981972;23;20231;-81
2021/04/13 05:38:44;;;;;;;4.57;3.90;;;;;;;-142.06;100.00;64312.41;4979458;28;20326;-81
2021/04/13 05:41:48;;;;;;;4.00;3.60;;;;;;;-142.06;100.00;64312.41;5008317;23;20224;-81
2021/04/13 05:44:54;;;;;;;4.20;3.80;;;;;;;-142.06;100.00;64312.41;4967654;28;20223;-80
2021/04/13 05:48:29;;;;;;;5.77;4.97;;;;;;;-142.06;100.00;64312.41;5009811;23;20224;-81
2021/04/13 05:51:40;;;;;;;9.17;8.37;;;;;;;-142.06;100.00;64312.41;4957102;28;20259;-81
2021/04/13 05:54:53;;;;;;;5.20;4.30;;;;;;;-142.06;100.00;64312.41;5020919;23;20222;-81
2021/04/13 05:57:56;;;;;;;6.10;4.30;;;;;;;-142.06;100.00;64312.41;4959361;23;20194;-80
2021/04/13 06:00:47;;;;;;;5.70;4.47;;;;;;;-142.06;100.00;64312.41;4966795;23;20717;-81
2021/04/13 06:03:55;;;;;;;6.93;5.03;;;;;;;-142.06;100.00;64312.41;4983885;23;20248;-82
2021/04/13 06:07:17;;;;;;;5.83;4.50;;;;;;;-142.06;100.00;64312.41;4959446;28;20605;-81
2021/04/13 06:10:42;;;;;;;5.70;4.90;;;;;;;-142.06;100.00;64312.41;4963205;23;20241;-81
2021/04/13 06:13:53;;;;;;;5.63;4.93;;;;;;;-142.06;100.00;64312.41;4960920;23;20233;-81
2021/04/13 06:17:12;;;;;;;4.90;4.40;;;;;;;-142.06;100.00;64312.41;4961576;28;20227;-81
2021/04/13 06:20:10;;;;;;;4.43;3.90;;;;;;;-142.06;100.00;64312.41;4984423;23;20254;-81
2021/04/13 06:23:07;;;;;;;5.80;4.47;;;;;;;-142.06;100.00;64312.41;4993890;28;20207;-81
2021/04/13 06:26:37;;;;;;;4.97;4.23;;;;;;;-142.06;100.00;64312.41;4997222;28;20967;-82
2021/04/13 06:30:29;;;;;;;4.93;4.53;;;;;;;-142.06;100.00;64312.41;5010866;28;20178;-80
2021/04/13 06:33:47;;;;;;;5.60;4.53;;;;;;;-142.06;100.00;64312.41;5086242;23;20220;-80
2021/04/13 06:37:22;;;;;;;6.03;4.40;;;;;;;-142.06;100.00;64312.41;4928604;29;20253;-81
2021/04/13 06:40:49;;;;;;;6.53;5.13;;;;;;;-142.06;100.00;64312.41;4935988;29;20194;-80
2021/04/13 06:44:41;;;;;;;5.87;5.10;;;;;;;-142.06;100.00;64312.41;4915075;29;20226;-82
2021/04/13 06:47:47;;;;;;;6.83;6.00;;;;;;;-142.06;100.00;64312.41;4917439;29;20285;-80
2021/04/13 06:51:06;;;;;;;6.87;5.77;;;;;;;-142.06;100.00;64312.41;4916631;29;20225;-80
2021/04/13 06:54:42;;;;;;;6.07;5.47;;;;;;;-142.06;100.00;64312.41;4949240;29;20216;-81
2021/04/13 06:57:52;;;;;;;7.87;6.07;;;;;;;-142.06;100.00;64312.41;4935520;29;20229;-82
2021/04/13 07:00:51;;;;;;;6.03;5.43;;;;;;;-142.06;100.00;64312.41;4904881;29;20226;-80
2021/04/13 07:03:34;;;;;;;5.83;5.13;;;;;;;-142.06;100.00;64312.41;4928936;29;20234;-80
2021/04/13 07:06:38;;;;;;;5.27;4.77;;;;;;;-142.06;100.00;64312.41;4934342;29;20225;-81
2021/04/13 07:09:40;;;;;;;6.73;5.60;;;;;;;-142.06;100.00;64312.41;4934614;29;20233;-82
2021/04/13 07:12:31;;;;;;;5.40;4.70;;;;;;;-142.06;100.00;64312.41;4940239;29;20217;-81
2021/04/13 07:15:20;;;;;;;5.33;4.73;;;;;;;-142.06;100.00;64312.41;4902817;29;20577;-80
2021/04/13 07:18:07;;;;;;;5.57;4.87;;;;;;;-142.06;100.00;64312.41;4929307;29;20250;-80
2021/04/13 07:21:14;;;;;;;6.57;5.27;;;;;;;-142.06;100.00;64312.41;4945474;23;20234;-81
2021/04/13 07:24:36;;;;;;;6.57;4.47;;;;;;;-142.06;100.00;64312.41;4989366;28;20335;-80
2021/04/13 07:30:45;;;;;;;6.00;5.40;;;;;;;3.59;76.64;100267.97;5111802;22;20529;-80
2021/04/13 07:33:31;;;;;;;6.97;5.30;;;;;;;3.70;74.67;100275.63;5077918;22;20210;-80
2021/04/13 07:36:33;;;;;;;5.67;5.07;;;;;;;3.70;75.54;100273.81;5104528;23;20247;-83
2021/04/13 07:39:35;;;;;;;5.73;5.10;;;;;;;3.86;73.88;100273.88;5069350;23;20231;-81
2021/04/13 07:42:23;;;;;;;6.93;5.10;;;;;;;3.99;73.10;100276.06;5048229;28;20240;-82
2021/04/13 07:45:29;;;;;;;6.00;5.40;;;;;;;3.98;72.74;100274.41;5094212;22;20273;-80
2021/04/13 07:48:56;;;;;;;5.40;4.80;;;;;;;4.25;70.95;100270.63;5081702;28;20247;-80
2021/04/13 07:52:00;;;;;;;6.83;5.63;;;;;;;4.27;71.92;100277.47;5104356;28;20613;-82
2021/04/13 07:55:14;;;;;;;6.27;5.43;;;;;;;4.43;71.44;100256.25;5111991;23;20224;-80
2021/04/13 07:58:41;;;;;;;6.40;5.63;;;;;;;4.53;70.55;100273.81;5087636;28;20665;-81
2021/04/13 08:02:15;;;;;;;9.23;6.13;;;;;;;4.64;69.97;100279.66;5122137;28;20245;-81
2021/04/13 08:05:13;;;;;;;6.03;5.40;;;;;;;4.66;69.11;100264.41;5021439;28;20241;-81
2021/04/13 08:08:27;;;;;;;7.10;6.03;;;;;;;4.48;70.27;100254.94;5021384;28;20299;-81
2021/04/13 08:11:27;;;;;;;7.20;5.70;;;;;;;4.48;69.88;100270.84;5050708;23;20229;-81
2021/04/13 08:14:35;;;;;;;6.20;5.60;;;;;;;4.68;69.94;100269.50;5081894;23;20220;-82
2021/04/13 08:18:07;;;;;;;6.50;5.23;;;;;;;4.61;69.80;100260.56;5087960;28;20210;-82
2021/04/13 08:24:58;;;;;;;8.70;6.43;;;;;;;4.88;71.10;100260.22;5123284;28;20262;-81
2021/04/13 08:27:52;;;;;;;6.67;5.70;;;;;;;4.83;70.62;100266.03;5123469;28;20227;-81
2021/04/13 08:34:49;;;;;;;8.07;6.60;;;;;;;4.58;73.74;100261.72;5104335;28;20219;-80
2021/04/13 08:38:10;;;;;;;7.47;6.67;;;;;;;4.63;76.40;100270.00;5118672;28;20275;-81
2021/04/13 08:41:34;;;;;;;7.50;6.57;;;;;;;4.53;75.43;100263.19;4994653;28;20277;-80
2021/04/13 08:44:29;;;;;;;7.60;6.77;;;;;;;4.86;75.27;100262.19;5087045;22;20236;-80
2021/04/13 08:47:22;;;;;;;8.50;7.60;;;;;;;5.21;75.20;100268.97;5091226;28;20311;-81
2021/04/13 08:50:45;;;;;;;8.60;7.70;;;;;;;5.39;74.20;100272.25;5072528;28;20238;-80
2021/04/13 08:53:46;;;;;;;9.80;7.97;;;;;;;5.46;71.46;100270.53;5078322;28;20710;-81
2021/04/13 08:57:01;;;;;;;9.50;8.10;;;;;;;5.38;73.33;100251.97;5075970;28;20173;-80
2021/04/13 08:59:55;;;;;;;8.30;7.23;;;;;;;5.40;71.16;100249.16;5108740;28;20195;-80
2021/04/13 09:02:42;;;;;;;8.83;7.93;;;;;;;5.20;73.84;100249.53;5102195;22;20222;-80
2021/04/13 09:05:57;;;;;;;9.67;8.33;;;;;;;5.30;71.82;100252.84;5095028;28;20215;-80
2021/04/13 09:09:19;;;;;;;10.30;8.27;;;;;;;4.98;72.46;100249.44;5103181;28;20236;-80
2021/04/13 09:12:41;;;;;;;9.97;8.93;;;;;;;5.54;73.18;100259.06;5058125;23;20655;-80
2021/04/13 09:15:58;;;;;;;9.93;8.77;;;;;;;5.56;72.83;100241.94;5066805;28;20220;-80
2021/04/13 09:19:06;;;;;;;8.97;8.10;;;;;;;5.58;72.03;100247.09;5068838;28;20237;-80
2021/04/13 09:22:19;;;;;;;10.40;8.90;;;;;;;5.75;71.45;100254.00;5099764;22;20228;-80
2021/04/13 09:25:35;;;;;;;9.73;8.50;;;;;;;5.55;71.87;100248.25;5080660;28;20223;-80
2021/04/13 09:28:49;;;;;;;9.20;8.20;;;;;;;5.65;71.19;100245.38;5093781;28;20219;-81
2021/04/13 09:31:53;;;;;;;9.40;8.37;;;;;;;5.36;73.68;100250.50;5115830;22;20223;-80
2021/04/13 09:35:20;;;;;;;9.57;8.53;;;;;;;5.05;74.35;100251.22;5101192;28;20227;-80
2021/04/13 09:38:44;;;;;;;10.03;8.97;;;;;;;5.59;72.84;100251.41;5108115;28;20223;-80
2021/04/13 09:41:42;;;;;;;9.73;8.73;;;;;;;5.24;73.00;100242.06;5104285;22;20232;-81
2021/04/13 09:44:51;;;;;;;9.17;8.27;;;;;;;5.43;72.44;100236.34;5078497;28;20196;-82
2021/04/13 09:48:01;;;;;;;8.77;7.87;;;;;;;5.72;71.99;100243.72;5086856;28;20228;-80
2021/04/13 09:51:08;;;;;;;9.53;8.57;;;;;;;5.52;73.22;100240.63;5051808;28;20222;-80
2021/04/13 09:54:04;;;;;;;10.43;8.97;;;;;;;5.46;73.70;100236.00;5055294;22;20226;-81
2021/04/13 09:57:25;;;;;;;9.97;8.97;;;;;;;5.91;73.67;100238.00;5033798;28;20227;-80
2021/04/13 10:00:57;;;;;;;8.83;7.77;;;;;;;5.82;71.02;100236.34;5025148;28;20354;-79
2021/04/13 10:03:42;;;;;;;9.93;8.23;;;;;;;5.68;78.11;100237.09;5067517;23;20242;-80
2021/04/13 10:07:10;;;;;;;9.33;8.23;;;;;;;5.66;81.22;100234.59;5054963;22;20224;-80
2021/04/13 10:10:11;;;;;;;7.93;6.90;;;;;;;5.31;82.50;100227.94;5069262;28;20256;-80
2021/04/13 10:13:44;;;;;;;8.37;7.43;;;;;;;5.45;79.64;100226.38;5070111;28;20221;-80
2021/04/13 10:17:07;;;;;;;9.10;7.37;;;;;;;5.41;78.23;100224.25;5052839;28;20209;-79
2021/04/13 10:21:10;;;;;;;9.50;7.50;;;;;;;5.46;76.38;100230.69;5073378;28;20299;-80
2021/04/13 10:24:01;;;;;;;8.00;7.20;;;;;;;5.44;74.50;100223.88;5042412;28;20216;-80
2021/04/13 10:26:56;;;;;;;8.37;7.00;;;;;;;5.18;73.72;100224.97;5081607;28;20231;-80
2021/04/13 10:30:02;;;;;;;7.00;6.30;;;;;;;5.19;72.23;100218.66;5080824;28;20217;-80
2021/04/13 10:33:18;;;;;;;6.93;6.23;;;;;;;5.10;75.84;100216.19;5084124;28;20224;-80
2021/04/13 10:36:39;;;;;;;7.20;6.50;;;;;;;5.32;75.95;100210.97;5045225;28;20229;-79
2021/04/13 10:40:03;;;;;;;6.23;5.53;;;;;;;4.74;76.64;100213.13;5062978;28;20197;-80
2021/04/13 10:43:45;;;;;;;7.27;6.17;;;;;;;4.69;76.30;100218.94;5094646;22;20294;-80
2021/04/13 10:46:53;;;;;;;7.90;6.43;;;;;;;4.70;78.57;100214.44;5001921;28;20207;-80
2021/04/13 10:50:16;;;;;;;6.47;5.80;;;;;;;4.74;77.46;100216.59;5086237;28;20228;-80
2021/04/13 10:53:31;;;;;;;6.63;5.93;;;;;;;5.78;76.78;100213.78;5021985;28;20231;-80
2021/04/13 10:56:38;;;;;;;6.23;5.63;;;;;;;6.11;76.88;100206.47;5053954;28;20324;-80
2021/04/13 10:59:41;;;;;;;6.30;5.50;;;;;;;5.52;74.86;100210.56;5064284;28;20595;-80
2021/04/13 11:03:00;;;;;;;6.70;5.07;;;;;;;4.46;76.98;100206.50;5066697;28;20249;-81
2021/04/13 11:05:52;;;;;;;7.27;5.37;;;;;;;4.32;77.99;100206.16;5043195;28;20217;-82
2021/04/13 11:08:59;;;;;;;6.93;6.23;;;;;;;4.42;79.75;100203.34;5065452;28;20233;-80
2021/04/13 11:11:51;;;;;;;6.73;5.77;;;;;;;4.31;78.72;100198.38;5047222;28;20257;-80
2021/04/13 11:15:06;;;;;;;6.47;5.87;;;;;;;4.55;77.92;100194.88;5052539;22;20245;-79
2021/04/13 11:17:58;;;;;;;6.77;5.20;;;;;;;4.41;77.53;100191.91;5029089;23;20225;-79
2021/04/13 11:20:50;;;;;;;6.07;5.23;;;;;;;4.41;78.03;100194.56;5067115;28;20662;-80
2021/04/13 11:23:58;;;;;;;7.20;6.30;;;;;;;4.63;78.61;100184.25;5085303;28;20224;-80
2021/04/13 11:27:09;;;;;;;6.27;5.67;;;;;;;4.71;77.31;100176.31;5156160;22;20233;-80
2021/04/13 11:30:22;;;;;;;6.17;5.57;;;;;;;4.64;78.12;100177.97;5041951;28;20256;-80
2021/04/13 11:33:34;;;;;;;4.27;3.87;;;;;;;4.55;79.51;100171.00;5030846;28;20229;-80
2021/04/13 11:36:30;;;;;;;4.53;4.10;;;;;;;4.54;79.80;100174.66;5060366;23;20212;-80
2021/04/13 11:39:30;;;;;;;4.70;4.30;;;;;;;4.84;80.82;100180.09;5064344;28;20298;-79
2021/04/13 11:42:38;;;;;;;5.03;4.53;;;;;;;4.75;78.80;100186.41;5069376;28;20216;-79
2021/04/13 11:46:10;;;;;;;4.80;4.40;;;;;;;4.80;77.15;100175.28;5050169;28;20229;-79
2021/04/13 11:49:42;;;;;;;5.97;4.50;;;;;;;4.80;76.18;100169.97;5045454;28;20264;-81
2021/04/13 11:52:53;;;;;;;5.90;4.50;;;;;;;4.52;76.46;100158.09;5080148;22;20232;-80
2021/04/13 11:55:41;;;;;;;5.60;5.10;;;;;;;4.52;77.33;100164.22;5065626;23;20238;-80
2021/04/13 11:58:35;;;;;;;5.93;5.43;;;;;;;4.70;76.31;100162.19;5049931;28;20229;-79
2021/04/13 12:01:38;;;;;;;5.80;5.07;;;;;;;4.77;76.37;100173.78;5063395;23;20228;-80
2021/04/13 12:04:47;;;;;;;6.50;5.90;;;;;;;4.62;76.77;100161.38;5055859;28;20699;-80
2021/04/13 12:08:09;;;;;;;6.37;5.77;;;;;;;4.55;79.82;100157.72;5083521;28;20315;-80
2021/04/13 12:11:07;;;;;;;6.67;6.03;;;;;;;4.44;77.97;100149.13;5086360;28;20217;-80
2021/04/13 12:14:30;;;;;;;5.97;5.47;;;;;;;4.36;78.89;100140.34;5186480;22;20254;-81
2021/04/13 12:17:43;;;;;;;6.97;6.37;;;;;;;4.66;79.67;100144.13;5077712;28;20232;-82
2021/04/13 12:20:43;;;;;;;7.97;7.13;;;;;;;4.51;79.69;100140.50;5067095;28;20243;-82
2021/04/13 12:23:47;;;;;;;7.27;6.57;;;;;;;4.55;78.03;100144.47;5075779;28;20236;-83
2021/04/13 12:26:43;;;;;;;7.10;6.40;;;;;;;4.48;78.95;100148.81;5073159;28;20215;-83
2021/04/13 12:29:35;;;;;;;7.70;6.90;;;;;;;4.42;82.64;100134.38;5107031;28;20220;-81
2021/04/13 12:32:46;;;;;;;7.53;6.57;;;;;;;4.21;82.75;100136.69;5082119;28;20217;-82
2021/04/13 12:35:54;;;;;;;8.33;6.77;;;;;;;4.62;82.18;100142.81;5086813;28;20712;-81
2021/04/13 12:38:43;;;;;;;7.27;6.60;;;;;;;4.55;79.75;100125.88;5049942;28;20304;-81
2021/04/13 12:41:38;;;;;;;6.10;5.50;;;;;;;4.15;79.05;100116.16;5096081;22;20643;-80
2021/04/13 12:44:46;;;;;;;7.30;6.60;;;;;;;4.19;80.21;100131.59;5061525;28;20230;-80
2021/04/13 12:48:01;;;;;;;6.70;6.10;;;;;;;4.26;79.77;100110.50;5067097;28;20236;-80
2021/04/13 12:51:02;;;;;;;5.77;5.27;;;;;;;4.19;79.19;100118.31;5055738;28;20225;-80
2021/04/13 12:54:31;;;;;;;6.87;6.20;;;;;;;3.99;80.64;100122.28;5065943;28;20237;-80
2021/04/13 12:57:34;;;;;;;6.97;6.27;;;;;;;4.16;79.67;100104.53;5059246;28;20567;-80
2021/04/13 13:00:34;;;;;;;6.40;5.87;;;;;;;4.16;78.54;100107.19;5057575;28;20357;-80
2021/04/13 13:03:35;;;;;;;6.50;5.80;;;;;;;4.38;78.81;100115.31;5067020;28;20232;-81
2021/04/13 13:06:27;;;;;;;7.50;6.37;;;;;;;4.48;78.25;100109.00;5065482;28;20257;-80
2021/04/13 13:09:36;;;;;;;6.97;6.37;;;;;;;4.52;78.75;100105.00;5045065;28;20222;-80
2021/04/13 13:12:05;;;;;;;6.83;6.23;;;;;;;4.72;77.61;100099.13;5049059;28;20228;-80
2021/04/13 13:15:12;;;;;;;6.60;6.00;;;;;;;4.55;75.55;100102.00;5065078;28;20231;-80
2021/04/13 13:17:50;;;;;;;6.23;5.70;;;;;;;4.59;76.45;100090.88;5055950;28;20277;-80
2021/04/13 13:20:38;;;;;;;6.90;6.20;;;;;;;4.34;76.31;100087.44;5045129;28;20233;-80
2021/04/13 13:23:42;;;;;;;6.53;5.93;;;;;;;4.30;78.38;100115.31;5061174;28;20229;-80
2021/04/13 13:26:27;;;;;;;6.40;5.80;;;;;;;4.01;78.84;100104.41;5042138;28;20264;-80
2021/04/13 13:29:08;;;;;;;7.40;5.90;;;;;;;3.83;80.16;100104.53;5065367;28;20216;-80
2021/04/13 13:31:39;;;;;;;6.60;6.00;;;;;;;3.46;81.86;100099.69;5067244;28;20220;-79
2021/04/13 13:34:21;;;;;;;6.10;5.50;;;;;;;3.41;82.33;100096.69;5066779;28;20233;-80
2021/04/13 13:36:52;;;;;;;7.30;6.60;;;;;;;3.42;83.17;100097.53;5065822;28;20227;-80
2021/04/13 13:39:29;;;;;;;6.07;5.47;;;;;;;3.49;83.07;100094.09;5046961;28;20508;-81
2021/04/13 13:42:04;;;;;;;6.83;6.17;;;;;;;3.60;82.99;100100.03;5047331;28;20229;-80
2021/04/13 13:44:48;;;;;;;6.47;5.87;;;;;;;3.47;83.99;100088.13;5084187;28;20224;-80
2021/04/13 13:47:29;;;;;;;6.40;5.77;;;;;;;3.40;83.38;100088.94;5068472;28;20533;-80
2021/04/13 13:50:20;;;;;;;5.90;5.20;;;;;;;3.13;83.94;100094.50;5071880;28;20275;-80
2021/04/13 13:52:56;;;;;;;6.13;5.53;;;;;;;3.01;84.82;100088.66;5088020;28;20197;-80
2021/04/13 13:55:35;;;;;;;5.43;4.63;;;;;;;2.91;85.54;100102.00;5089783;28;20224;-80
2021/04/13 13:58:25;;;;;;;6.73;6.07;;;;;;;2.98;85.99;100100.41;5078620;28;20229;-80
2021/04/13 14:01:23;;;;;;;6.27;5.67;;;;;;;3.16;85.35;100094.16;5066968;28;20186;-80
2021/04/13 14:04:10;;;;;;;7.97;6.20;;;;;;;3.22;84.97;100102.28;5070406;28;20280;-80
2021/04/13 14:06:50;;;;;;;6.30;5.70;;;;;;;3.22;83.20;100102.28;5076111;28;20196;-80
2021/04/13 14:10:08;;;;;;;5.67;5.17;;;;;;;3.24;83.01;100102.94;5080555;28;20197;-80
2021/04/13 14:12:43;;;;;;;6.20;5.53;;;;;;;3.32;82.86;100104.78;5087680;28;20284;-80
2021/04/13 14:15:22;;;;;;;5.47;4.97;;;;;;;3.28;83.95;100087.56;5068988;28;20219;-80
2021/04/13 14:18:16;;;;;;;5.77;4.30;;;;;;;3.21;84.46;100100.63;5087270;28;20235;-80
2021/04/13 14:21:20;;;;;;;5.20;4.70;;;;;;;3.27;85.14;100097.31;5087643;23;20298;-79
2021/04/13 14:24:53;;;;;;;5.27;4.57;;;;;;;3.17;84.68;100096.66;5088442;28;20639;-80
2021/04/13 14:27:32;;;;;;;4.97;4.47;;;;;;;3.17;83.74;100096.66;5132085;22;20215;-80
2021/04/13 14:30:32;;;;;;;5.33;4.70;;;;;;;3.06;84.55;100096.94;5087580;28;20239;-80
2021/04/13 14:33:20;;;;;;;4.33;3.93;;;;;;;2.87;85.06;100091.91;5094512;28;20219;-80
2021/04/13 14:36:07;;;;;;;5.07;4.60;;;;;;;2.53;87.02;100092.72;5103768;23;20228;-80
2021/04/13 14:39:12;;;;;;;5.40;4.90;;;;;;;2.63;88.24;100077.56;5125831;22;20221;-80
2021/04/13 14:42:22;;;;;;;5.20;4.70;;;;;;;2.69;88.34;100091.16;5074761;28;20217;-80
2021/04/13 14:45:13;;;;;;;6.00;5.27;;;;;;;2.75;87.73;100091.38;5085985;28;20223;-80
2021/04/13 14:48:40;;;;;;;5.20;4.70;;;;;;;2.81;87.55;100092.53;5085954;28;20224;-80
2021/04/13 14:51:31;;;;;;;5.00;4.50;;;;;;;2.88;87.88;100082.97;5067889;28;20225;-80
2021/04/13 14:54:11;;;;;;;4.73;4.17;;;;;;;2.84;86.40;100092.22;5071863;28;20528;-80
2021/04/13 14:56:54;;;;;;;5.77;4.90;;;;;;;2.82;86.28;100081.78;5056807;28;20220;-81
2021/04/13 14:59:52;;;;;;;4.80;4.30;;;;;;;2.61;85.42;100066.31;5066268;28;20227;-80
2021/04/13 15:03:02;;;;;;;5.23;4.73;;;;;;;2.67;86.71;100078.91;5083155;28;20280;-80
2021/04/13 15:06:26;;;;;;;5.40;4.90;;;;;;;2.59;86.54;100076.22;5097177;23;20204;-80
2021/04/13 15:09:00;;;;;;;5.27;4.77;;;;;;;2.60;86.94;100067.31;5101626;28;20216;-80
2021/04/13 15:11:38;;;;;;;5.67;5.07;;;;;;;2.63;88.29;100080.22;5096207;22;20227;-80
2021/04/13 15:14:37;;;;;;;5.80;5.10;;;;;;;2.69;86.61;100077.94;5083755;28;20232;-80
2021/04/13 15:17:29;;;;;;;6.17;4.83;;;;;;;2.72;86.85;100080.25;5104686;28;20223;-80